FCBB/BZV METAR and TAF weather

Enter ICAO airport designator
Station Type Date Time Source
FCBB METAR 2018/01/19 17:00 UTC NOAA

FCBB 191700Z 21004KT 9000 SCT018 26/23 Q1010 NOSIG


Station Type Date Time Source
FCBB Decoded METAR 2018/01/19 17:00 UTC NOAA

Brazzaville / Maya-Maya, Congo, Republic of the (FCBB) 04-15S 015-15E 316M
Jan 19, 2018 - 12:00 PM EST / 2018.01.19 1700 UTC
Wind: from the SSW (210 degrees) at 5 MPH (4 KT):0
Visibility: 5 mile(s):0
Sky conditions: partly cloudy
Temperature: 78 F (26 C)
Dew Point: 73 F (23 C)
Relative Humidity: 83%
Pressure (altimeter): 29.83 in. Hg (1010 hPa)
ob: FCBB 191700Z 21004KT 9000 SCT018 26/23 Q1010 NOSIG
cycle: 17

Station Type Date Time Source
FCBB TAF 2018/01/19 18:06 UTC NOAA

TAF TAF FCBB 191700Z 1918/2024 24005KT 9000 FEW020
BECMG 2012/2014 FEW020 FEW030CB
BECMG 2019/2021 SCT018


Example: see airport list